Richard I Bong Information

FAA: SUW - ICAO: KSUW

Richard I Bong (Airport) Location

State Wisconsin
County Douglas
City Superior
Richard I Bong (Airport) is 3 miles south of Superior, WI.
Latitude 46-41-22.8627N
Longitude 092-05-40.7111W
Elevation 674ft

Richard I Bong METARs

METAR KSUW 201135Z AUTO 24004KT 10SM CLR M26/M29 A3067 RMK AO2 T12611294
Altimeter 30.67"
Temperature -26.1°C (-15.0°F)
Wind 240° at 4KT
Clouds Skies are clear.
Visibility 10.0mi
Time observed: 2022-01-20T11:35:00Z

Richard I Bong (Airport) Details

Status Operational
Activation October 1937
Ownership Public
Usage Public
Chart GREEN BAY
ATC on-site No
Beacon schedule sunset-sunrise
Beacon color clear green

Richard I Bong (Airport) Contacts

Owner CITY OF SUPERIOR
Owner address N/A, SUPERIOR, WI 54880
Owner phone 715-394-0282
Manager SCOTT TRAVIS
Manager address 20875 CROSSROADS CIRCLE, STE. 100, WAUKESHA, WI 53486
Manager phone 262-798-5080

Richard I Bong Radio Frequencies

Richard I Bong (Airport) Radio Frequencies

UNICOM 122.7
Common traffic advisory frequency (CTAF) 122.7